Time;durP1;ratioP1;P1;durP2;ratioP2;P2;SDS_P1;SDS_P2;PMS_P1;PMS_P2;Temp;Humidity;BMP_temperature;BMP_pressure;BME280_temperature;BME280_humidity;BME280_pressure;Samples;Min_cycle;Max_cycle;Signal;HPM_P1;HPM_P2
2023/09/09 00:00:57;;;;;;;9.90;9.10;;;19.70;99.90;;;;;;4936921;29;20173;-72
2023/09/09 00:03:23;;;;;;;9.97;9.07;;;19.70;99.90;;;;;;4937111;29;20325;-73
2023/09/09 00:05:49;;;;;;;10.63;9.63;;;19.70;99.90;;;;;;4936888;29;20173;-73
2023/09/09 00:08:19;;;;;;;11.00;9.90;;;19.70;99.90;;;;;;4936913;29;20213;-73
2023/09/09 00:10:45;;;;;;;10.73;9.40;;;19.70;99.90;;;;;;4937564;29;20780;-73
2023/09/09 00:13:11;;;;;;;10.13;9.20;;;19.60;99.90;;;;;;4937027;29;20502;-73
2023/09/09 00:15:37;;;;;;;9.90;8.90;;;19.50;99.90;;;;;;4936642;29;20467;-73
2023/09/09 00:18:03;;;;;;;10.43;9.43;;;19.50;99.90;;;;;;4936766;29;20417;-73
2023/09/09 00:20:36;;;;;;;9.33;8.23;;;19.50;99.90;;;;;;4936357;29;20416;-72
2023/09/09 00:23:09;;;;;;;11.23;10.07;;;19.50;99.90;;;;;;4936857;29;20539;-73
2023/09/09 00:25:39;;;;;;;11.07;9.87;;;19.50;99.90;;;;;;4936589;29;20499;-72
2023/09/09 00:28:05;;;;;;;12.03;10.87;;;19.50;99.90;;;;;;4935929;29;20500;-72
2023/09/09 00:30:31;;;;;;;14.83;9.80;;;19.40;99.90;;;;;;4936303;29;20784;-73
2023/09/09 00:32:58;;;;;;;10.00;8.93;;;19.40;99.90;;;;;;4936099;29;20465;-72
2023/09/09 00:35:24;;;;;;;11.10;9.00;;;19.40;99.90;;;;;;4936195;29;20200;-73
2023/09/09 00:37:50;;;;;;;10.57;9.40;;;19.40;99.90;;;;;;4936097;29;20472;-73
2023/09/09 00:40:15;;;;;;;11.07;9.83;;;19.40;99.90;;;;;;4935911;29;20908;-73
2023/09/09 00:42:41;;;;;;;10.37;9.37;;;19.40;99.90;;;;;;4935616;29;20193;-73
2023/09/09 00:45:07;;;;;;;10.00;9.00;;;19.30;99.90;;;;;;4935239;29;20531;-73
2023/09/09 00:47:33;;;;;;;9.80;8.80;;;19.30;99.90;;;;;;4935838;29;20172;-72
2023/09/09 00:49:59;;;;;;;10.73;9.60;;;19.30;99.90;;;;;;4935183;29;20287;-73
2023/09/09 00:52:25;;;;;;;12.73;11.53;;;19.30;99.90;;;;;;4936244;29;20437;-72
2023/09/09 00:54:52;;;;;;;12.17;10.57;;;19.20;99.90;;;;;;4936657;29;20990;-72
2023/09/09 00:57:19;;;;;;;9.80;8.90;;;19.20;99.90;;;;;;4935971;29;20434;-72
2023/09/09 00:59:46;;;;;;;11.43;10.23;;;19.20;99.90;;;;;;4935662;29;20907;-73
2023/09/09 01:02:11;;;;;;;11.37;10.37;;;19.20;99.90;;;;;;4935633;29;20571;-73
2023/09/09 01:04:37;;;;;;;13.70;10.27;;;19.10;99.90;;;;;;4935375;29;20442;-71
2023/09/09 01:07:04;;;;;;;11.10;10.03;;;19.10;99.90;;;;;;4935421;29;20177;-73
2023/09/09 01:09:30;;;;;;;10.17;9.20;;;19.10;99.90;;;;;;4935073;29;20206;-72
2023/09/09 01:11:58;;;;;;;13.80;10.63;;;19.10;99.90;;;;;;4935649;29;20753;-73
2023/09/09 01:14:24;;;;;;;11.90;10.70;;;19.10;99.90;;;;;;4936276;29;20970;-73
2023/09/09 01:16:51;;;;;;;11.20;10.20;;;19.00;99.90;;;;;;4935849;29;20548;-73
2023/09/09 01:19:24;;;;;;;11.97;10.87;;;19.00;99.90;;;;;;4935306;29;20565;-73
2023/09/09 01:21:51;;;;;;;13.50;10.93;;;19.00;99.90;;;;;;4935272;29;20441;-73
2023/09/09 01:24:17;;;;;;;12.23;10.70;;;19.00;99.90;;;;;;4933962;29;20450;-73
2023/09/09 01:26:45;;;;;;;11.87;10.10;;;19.00;99.90;;;;;;4934931;29;20405;-73
2023/09/09 01:29:11;;;;;;;11.67;10.47;;;18.90;99.90;;;;;;4935793;29;20169;-73
2023/09/09 01:31:37;;;;;;;10.70;9.60;;;18.90;99.90;;;;;;4934798;29;20407;-73
2023/09/09 01:34:03;;;;;;;11.23;10.10;;;18.90;99.90;;;;;;4935103;29;20189;-73
2023/09/09 01:36:29;;;;;;;10.67;9.73;;;18.90;99.90;;;;;;4934936;29;20617;-73
2023/09/09 01:38:55;;;;;;;11.63;10.33;;;18.80;99.90;;;;;;4949643;23;20169;-72
2023/09/09 01:41:20;;;;;;;11.50;10.43;;;18.80;99.90;;;;;;4951684;29;20227;-70
2023/09/09 01:43:46;;;;;;;12.43;10.63;;;18.80;99.90;;;;;;4953957;29;20160;-71
2023/09/09 01:46:11;;;;;;;12.37;11.10;;;18.80;99.90;;;;;;4954003;29;20251;-70
2023/09/09 01:48:37;;;;;;;11.30;10.00;;;18.80;99.90;;;;;;4953666;29;20178;-70
2023/09/09 01:51:03;;;;;;;11.20;10.10;;;18.70;99.90;;;;;;4953781;28;20282;-71
2023/09/09 01:53:29;;;;;;;11.20;10.20;;;18.70;99.90;;;;;;4953573;28;20397;-71
2023/09/09 01:55:58;;;;;;;10.90;9.80;;;18.70;99.90;;;;;;4953688;28;20203;-71
2023/09/09 01:58:24;;;;;;;10.37;9.37;;;18.70;99.90;;;;;;4953728;28;20270;-71
2023/09/09 02:00:49;;;;;;;11.83;10.73;;;18.60;99.90;;;;;;4953856;28;20458;-71
2023/09/09 02:03:15;;;;;;;12.00;10.03;;;18.60;99.90;;;;;;4955355;28;20256;-71
2023/09/09 02:05:41;;;;;;;11.53;10.43;;;18.60;99.90;;;;;;4955344;29;20528;-71
2023/09/09 02:08:06;;;;;;;11.47;9.63;;;18.50;99.90;;;;;;4955195;28;20179;-70
2023/09/09 02:10:32;;;;;;;13.70;10.77;;;18.50;99.90;;;;;;4954990;28;20567;-71
2023/09/09 02:12:58;;;;;;;11.43;10.50;;;18.50;99.90;;;;;;4953819;28;20187;-71
2023/09/09 02:15:23;;;;;;;12.10;11.00;;;18.50;99.90;;;;;;4953573;28;20233;-71
2023/09/09 02:17:49;;;;;;;11.23;10.17;;;18.50;99.90;;;;;;4953322;28;20220;-71
2023/09/09 02:20:14;;;;;;;12.90;10.50;;;18.40;99.90;;;;;;4953401;29;20203;-71
2023/09/09 02:22:40;;;;;;;12.67;11.53;;;18.40;99.90;;;;;;4953299;28;20199;-71
2023/09/09 02:25:07;;;;;;;11.97;10.87;;;18.40;99.90;;;;;;4953496;28;20173;-71
2023/09/09 02:27:33;;;;;;;11.77;10.47;;;18.40;99.90;;;;;;4953515;28;20225;-71
2023/09/09 02:30:01;;;;;;;11.80;10.43;;;18.40;99.90;;;;;;4953413;29;20513;-70
2023/09/09 02:32:27;;;;;;;11.50;10.40;;;18.30;99.90;;;;;;4953472;28;20517;-71
2023/09/09 02:34:53;;;;;;;12.40;11.10;;;18.30;99.90;;;;;;4953406;29;20422;-70
2023/09/09 02:37:20;;;;;;;12.00;10.80;;;18.20;99.90;;;;;;4953039;28;20409;-70
2023/09/09 02:39:50;;;;;;;12.40;11.30;;;18.20;99.90;;;;;;4953114;28;20296;-71
2023/09/09 02:42:21;;;;;;;13.13;11.80;;;18.20;99.90;;;;;;4953851;28;20417;-70
2023/09/09 02:44:49;;;;;;;16.03;12.80;;;18.20;99.90;;;;;;4953628;28;20423;-70
2023/09/09 02:47:15;;;;;;;11.20;10.10;;;18.10;99.90;;;;;;4953259;28;20441;-71
2023/09/09 02:55:38;;;;;;;11.60;10.60;;;18.10;99.90;;;;;;4913623;29;20541;-69
2023/09/09 02:58:03;;;;;;;12.03;11.00;;;18.00;99.90;;;;;;4905831;29;20466;-69
2023/09/09 03:00:29;;;;;;;11.30;10.23;;;18.00;99.90;;;;;;4928687;29;20184;-68
2023/09/09 03:02:55;;;;;;;12.57;11.27;;;18.00;99.90;;;;;;4909323;29;20236;-68
2023/09/09 03:05:20;;;;;;;12.73;11.60;;;18.00;99.90;;;;;;4899283;29;20908;-68
2023/09/09 03:07:48;;;;;;;12.30;11.00;;;17.90;99.90;;;;;;4899006;29;20223;-68
2023/09/09 03:10:14;;;;;;;11.40;10.40;;;17.90;99.90;;;;;;4899118;29;20185;-67
2023/09/09 03:12:39;;;;;;;12.83;11.27;;;17.90;99.90;;;;;;4898838;29;20554;-68
2023/09/09 03:15:06;;;;;;;12.97;11.60;;;17.90;99.90;;;;;;4899106;29;20504;-68
2023/09/09 03:17:31;;;;;;;12.07;10.87;;;17.90;99.90;;;;;;4899135;29;20655;-68
2023/09/09 03:19:57;;;;;;;13.93;12.70;;;17.90;99.90;;;;;;4898893;29;20416;-68
2023/09/09 03:22:23;;;;;;;16.17;12.47;;;17.90;99.90;;;;;;4898650;29;20291;-70
2023/09/09 03:24:49;;;;;;;11.83;10.80;;;17.80;99.90;;;;;;4898844;29;20264;-70
2023/09/09 03:27:14;;;;;;;12.37;11.17;;;17.80;99.90;;;;;;4918748;23;20793;-69
2023/09/09 03:29:40;;;;;;;13.50;12.20;;;17.80;99.90;;;;;;4913481;29;20213;-70
2023/09/09 03:32:06;;;;;;;14.30;13.00;;;17.70;99.90;;;;;;4898874;29;20175;-69
2023/09/09 03:34:31;;;;;;;13.23;11.87;;;17.70;99.90;;;;;;4899553;29;20657;-70
2023/09/09 03:36:57;;;;;;;12.93;11.73;;;17.70;99.90;;;;;;4892267;29;20213;-69
2023/09/09 03:39:23;;;;;;;13.07;11.77;;;17.70;99.90;;;;;;4880478;29;20175;-69
2023/09/09 03:41:48;;;;;;;12.70;11.60;;;17.70;99.90;;;;;;4880063;29;20215;-71
2023/09/09 03:44:14;;;;;;;14.33;11.90;;;17.60;99.90;;;;;;4880020;29;20967;-71
2023/09/09 03:46:40;;;;;;;13.63;12.33;;;17.60;99.90;;;;;;4879743;29;20200;-70
2023/09/09 03:49:05;;;;;;;14.73;13.07;;;17.60;99.90;;;;;;4878098;29;20206;-69
2023/09/09 03:51:31;;;;;;;13.57;12.27;;;17.60;99.90;;;;;;4875487;29;20193;-69
2023/09/09 03:53:56;;;;;;;14.23;12.77;;;17.60;99.90;;;;;;4879815;29;20246;-70
2023/09/09 03:56:22;;;;;;;14.20;12.87;;;17.60;99.90;;;;;;4879492;29;20202;-70
2023/09/09 03:58:48;;;;;;;12.43;11.27;;;17.60;99.90;;;;;;4879686;29;20182;-69
2023/09/09 04:01:13;;;;;;;14.30;11.83;;;17.60;99.90;;;;;;4879691;29;20197;-70
2023/09/09 04:03:40;;;;;;;16.73;12.63;;;17.60;99.90;;;;;;4878831;29;20480;-70
2023/09/09 04:06:10;;;;;;;12.73;11.50;;;17.60;99.90;;;;;;4879494;29;20558;-72
2023/09/09 04:08:40;;;;;;;15.03;13.33;;;17.60;99.90;;;;;;4879621;29;20446;-70
2023/09/09 04:11:06;;;;;;;14.80;13.50;;;17.60;99.90;;;;;;4879733;29;20426;-70
2023/09/09 04:13:32;;;;;;;13.00;11.67;;;17.50;99.90;;;;;;4879648;29;20433;-70
2023/09/09 04:15:59;;;;;;;15.77;13.30;;;17.50;99.90;;;;;;4879320;29;20266;-70
2023/09/09 04:18:26;;;;;;;12.93;11.67;;;17.50;99.90;;;;;;4879592;29;20434;-71
2023/09/09 04:20:51;;;;;;;14.03;12.73;;;17.50;99.90;;;;;;4879396;29;20469;-70
2023/09/09 04:23:17;;;;;;;14.70;13.40;;;17.50;99.90;;;;;;4879378;29;20921;-72
2023/09/09 04:25:44;;;;;;;15.63;13.27;;;17.50;99.90;;;;;;4879446;29;20185;-70
2023/09/09 04:28:11;;;;;;;12.93;11.80;;;17.50;99.90;;;;;;4879175;29;20472;-70
2023/09/09 04:30:40;;;;;;;15.37;12.50;;;17.50;99.90;;;;;;4879383;29;20461;-71
2023/09/09 04:33:12;;;;;;;15.43;14.03;;;17.40;99.90;;;;;;4879130;29;20418;-70
2023/09/09 04:35:42;;;;;;;14.50;13.20;;;17.40;99.90;;;;;;4878905;29;20464;-70
2023/09/09 04:38:09;;;;;;;13.87;12.20;;;17.40;99.90;;;;;;4879262;29;20436;-70
2023/09/09 04:40:36;;;;;;;13.33;12.03;;;17.40;99.90;;;;;;4879136;29;20480;-69
2023/09/09 04:43:01;;;;;;;14.40;12.97;;;17.40;99.90;;;;;;4878978;29;20517;-70
2023/09/09 04:45:27;;;;;;;14.67;13.10;;;17.40;99.90;;;;;;4879033;29;20872;-70
2023/09/09 04:47:53;;;;;;;14.73;12.73;;;17.40;99.90;;;;;;4878612;29;20259;-69
2023/09/09 04:50:19;;;;;;;15.30;13.30;;;17.50;99.90;;;;;;4878700;29;20188;-69
2023/09/09 04:52:46;;;;;;;16.97;12.03;;;17.50;99.90;;;;;;4878480;29;20485;-70
2023/09/09 04:55:12;;;;;;;13.63;12.33;;;17.50;99.90;;;;;;4878672;29;20431;-69
2023/09/09 04:57:38;;;;;;;15.17;13.57;;;17.50;99.90;;;;;;4878556;29;20512;-70
2023/09/09 05:00:09;;;;;;;13.97;12.70;;;17.60;99.90;;;;;;4878602;29;20418;-72
2023/09/09 05:02:36;;;;;;;14.90;13.50;;;17.60;99.90;;;;;;4878533;29;20480;-69
2023/09/09 05:05:04;;;;;;;14.27;12.90;;;17.60;99.90;;;;;;4872694;29;20445;-70
2023/09/09 05:07:31;;;;;;;15.83;14.30;;;17.60;99.90;;;;;;4876235;29;20861;-70
2023/09/09 05:09:57;;;;;;;12.80;11.60;;;17.70;99.90;;;;;;4875684;29;20470;-71
2023/09/09 05:12:23;;;;;;;14.50;13.10;;;17.70;99.90;;;;;;4868464;29;20453;-71
2023/09/09 05:14:48;;;;;;;14.23;12.70;;;17.70;99.90;;;;;;4875504;29;20169;-70
2023/09/09 05:17:14;;;;;;;14.60;13.20;;;17.80;99.90;;;;;;4878209;29;20707;-69
2023/09/09 05:19:39;;;;;;;13.90;12.50;;;17.80;99.90;;;;;;4878240;29;20283;-70
2023/09/09 05:22:05;;;;;;;14.43;12.97;;;17.90;99.90;;;;;;4875469;29;20541;-71
2023/09/09 05:24:30;;;;;;;18.90;14.40;;;17.90;99.90;;;;;;4878432;29;20183;-72
2023/09/09 05:26:56;;;;;;;13.10;11.93;;;17.90;99.90;;;;;;4877948;29;20478;-70
2023/09/09 05:29:22;;;;;;;13.20;12.00;;;17.90;99.90;;;;;;4878466;29;20180;-69
2023/09/09 05:31:47;;;;;;;14.07;12.57;;;18.10;99.90;;;;;;4877990;29;20662;-69
2023/09/09 05:34:13;;;;;;;14.13;12.83;;;18.10;99.90;;;;;;4878145;29;20181;-69
2023/09/09 05:36:38;;;;;;;16.07;14.50;;;18.20;99.90;;;;;;4878148;29;20215;-69
2023/09/09 05:39:04;;;;;;;12.33;11.13;;;18.20;99.90;;;;;;4875604;29;20859;-69
2023/09/09 05:41:30;;;;;;;13.43;12.13;;;18.30;99.90;;;;;;4877808;29;20260;-69
2023/09/09 05:43:56;;;;;;;14.10;12.80;;;18.30;99.90;;;;;;4878089;29;20239;-69
2023/09/09 05:46:22;;;;;;;14.20;12.70;;;18.50;99.90;;;;;;4878350;29;20203;-69
2023/09/09 05:48:48;;;;;;;12.87;11.57;;;18.70;99.90;;;;;;4877671;29;20841;-69
2023/09/09 05:51:13;;;;;;;12.90;11.10;;;19.10;99.90;;;;;;4878098;29;20428;-68
2023/09/09 05:53:41;;;;;;;13.47;12.17;;;19.20;99.90;;;;;;4878146;29;20187;-69
2023/09/09 05:56:06;;;;;;;12.57;11.20;;;19.40;99.90;;;;;;4878184;29;20199;-69
2023/09/09 05:58:33;;;;;;;13.37;11.00;;;20.00;99.90;;;;;;4878174;29;20425;-68
2023/09/09 06:00:59;;;;;;;11.60;10.07;;;20.40;99.90;;;;;;4878140;29;20668;-68
2023/09/09 06:03:26;;;;;;;12.20;9.53;;;20.90;99.90;;;;;;4878119;29;20432;-68
2023/09/09 06:05:51;;;;;;;11.23;10.33;;;21.50;99.90;;;;;;4878195;29;20192;-69
2023/09/09 06:08:17;;;;;;;11.07;10.07;;;21.70;99.90;;;;;;4877752;29;20973;-68
2023/09/09 06:10:43;;;;;;;11.43;10.03;;;21.80;99.90;;;;;;4877819;29;20183;-68
2023/09/09 06:13:08;;;;;;;9.57;8.70;;;21.60;99.90;;;;;;4877512;29;20418;-68
2023/09/09 06:15:34;;;;;;;10.67;9.67;;;22.00;99.90;;;;;;4877953;29;20250;-68
2023/09/09 06:18:00;;;;;;;10.53;9.33;;;22.30;99.90;;;;;;4877553;29;20197;-68
2023/09/09 06:20:26;;;;;;;9.73;8.83;;;22.70;99.90;;;;;;4877727;29;20181;-67
2023/09/09 06:22:51;;;;;;;11.30;10.00;;;22.90;99.90;;;;;;4877613;29;20215;-68
2023/09/09 06:25:18;;;;;;;10.67;9.67;;;23.60;99.90;;;;;;4877640;29;20506;-68
2023/09/09 06:27:44;;;;;;;10.23;9.33;;;24.10;99.90;;;;;;4880533;29;20215;-68
2023/09/09 06:30:10;;;;;;;10.93;9.80;;;24.10;99.90;;;;;;4882283;29;20463;-70
2023/09/09 06:32:36;;;;;;;10.70;9.57;;;23.00;99.90;;;;;;4881303;29;20429;-69
2023/09/09 06:35:02;;;;;;;11.97;9.97;;;23.70;99.90;;;;;;4880974;29;20431;-69
2023/09/09 06:37:28;;;;;;;10.00;9.00;;;23.50;99.90;;;;;;4880986;29;20292;-69
2023/09/09 06:39:54;;;;;;;9.30;8.43;;;23.60;99.90;;;;;;4880971;29;20458;-69
2023/09/09 06:42:21;;;;;;;10.67;9.57;;;23.20;99.90;;;;;;4881074;29;20561;-69
2023/09/09 06:44:46;;;;;;;10.37;9.27;;;23.00;99.90;;;;;;4879795;29;20184;-69
2023/09/09 06:47:12;;;;;;;8.13;7.47;;;23.50;99.90;;;;;;4881080;29;20498;-68
2023/09/09 06:49:38;;;;;;;9.70;8.80;;;23.60;99.90;;;;;;4881153;29;20187;-71
2023/09/09 06:52:04;;;;;;;9.07;8.27;;;24.10;99.90;;;;;;4880866;29;20421;-71
2023/09/09 06:54:29;;;;;;;9.70;8.73;;;24.40;99.90;;;;;;4881230;29;20189;-75
2023/09/09 06:56:55;;;;;;;10.40;9.20;;;24.10;99.90;;;;;;4881027;29;20833;-75
2023/09/09 06:59:20;;;;;;;8.40;7.70;;;23.60;99.90;;;;;;4880868;29;20339;-72
2023/09/09 07:01:46;;;;;;;11.57;10.37;;;23.70;99.90;;;;;;4880970;29;20181;-72
2023/09/09 07:04:11;;;;;;;9.60;8.03;;;22.90;99.90;;;;;;4880742;29;20173;-73
2023/09/09 07:06:37;;;;;;;8.97;8.17;;;23.80;99.90;;;;;;4880586;29;20212;-73
2023/09/09 07:09:03;;;;;;;11.53;10.37;;;24.50;99.90;;;;;;4880405;29;20244;-71
2023/09/09 07:11:28;;;;;;;9.70;8.70;;;25.40;99.90;;;;;;4880512;29;20227;-73
2023/09/09 07:13:54;;;;;;;9.53;8.63;;;25.10;99.90;;;;;;4878555;29;20215;-73
2023/09/09 07:16:20;;;;;;;8.27;7.57;;;24.60;99.90;;;;;;4880821;29;20214;-75
2023/09/09 07:18:45;;;;;;;11.53;8.20;;;24.60;99.90;;;;;;4880821;29;20668;-74
2023/09/09 07:21:11;;;;;;;9.37;8.57;;;25.00;99.90;;;;;;4880514;29;20319;-72
2023/09/09 07:23:36;;;;;;;9.47;8.60;;;25.20;99.90;;;;;;4880331;29;20237;-71
2023/09/09 07:26:02;;;;;;;9.03;7.80;;;25.80;99.90;;;;;;4880136;29;20555;-72
2023/09/09 07:28:28;;;;;;;8.93;7.83;;;25.50;99.90;;;;;;4880076;29;20299;-72
2023/09/09 07:30:53;;;;;;;9.30;8.40;;;25.10;99.90;;;;;;4879139;29;20219;-72
2023/09/09 07:33:19;;;;;;;8.97;8.17;;;25.60;99.90;;;;;;4881184;29;20814;-72
2023/09/09 07:35:45;;;;;;;8.77;7.90;;;25.80;99.90;;;;;;4881773;29;20259;-72
2023/09/09 07:38:10;;;;;;;8.40;7.70;;;25.40;99.90;;;;;;4879724;29;20581;-72
2023/09/09 07:40:36;;;;;;;9.77;8.63;;;25.50;99.90;;;;;;4880175;29;20590;-72
2023/09/09 07:43:02;;;;;;;9.10;8.20;;;26.20;99.90;;;;;;4879756;29;20177;-72
2023/09/09 07:45:28;;;;;;;8.73;6.90;;;26.40;99.90;;;;;;4879920;29;20189;-72
2023/09/09 07:47:54;;;;;;;11.97;10.87;;;25.70;99.90;;;;;;4879721;29;20548;-72
2023/09/09 07:50:19;;;;;;;8.33;7.63;;;25.40;99.90;;;;;;4879877;29;21180;-73
2023/09/09 07:52:45;;;;;;;16.40;14.73;;;25.50;99.90;;;;;;4878430;29;20185;-71
2023/09/09 07:55:11;;;;;;;11.17;8.70;;;26.20;99.90;;;;;;4879887;29;20181;-71
2023/09/09 07:57:37;;;;;;;7.73;7.03;;;26.90;99.90;;;;;;4880062;29;20197;-72
2023/09/09 08:00:05;;;;;;;16.60;8.70;;;27.40;99.90;;;;;;4880020;29;20914;-72
2023/09/09 08:02:31;;;;;;;8.33;7.67;;;27.00;99.90;;;;;;4875411;29;20177;-74
2023/09/09 08:04:56;;;;;;;7.83;7.03;;;26.10;99.90;;;;;;4875881;29;20421;-73
2023/09/09 08:07:22;;;;;;;7.93;7.33;;;26.70;99.90;;;;;;4879694;29;20203;-73
2023/09/09 08:09:47;;;;;;;8.80;8.00;;;26.20;99.90;;;;;;4879845;29;20184;-73
2023/09/09 08:12:13;;;;;;;8.03;7.40;;;26.50;99.90;;;;;;4879634;29;20292;-73
2023/09/09 08:14:41;;;;;;;8.27;7.50;;;27.80;99.90;;;;;;4879573;29;20180;-73
2023/09/09 08:17:07;;;;;;;7.70;6.77;;;28.10;99.90;;;;;;4879401;29;20247;-73
2023/09/09 08:19:32;;;;;;;7.83;6.13;;;28.20;99.90;;;;;;4879472;29;20845;-72
2023/09/09 08:21:58;;;;;;;8.07;7.30;;;28.90;99.90;;;;;;4879410;29;20181;-73
2023/09/09 08:24:24;;;;;;;6.80;6.30;;;28.10;99.90;;;;;;4871682;29;20641;-73
2023/09/09 08:26:49;;;;;;;8.50;7.80;;;28.10;99.90;;;;;;4879022;29;20239;-72
2023/09/09 08:29:15;;;;;;;7.70;7.00;;;27.50;99.90;;;;;;4879093;29;20184;-75
2023/09/09 08:31:41;;;;;;;6.83;5.93;;;27.30;99.90;;;;;;4879313;29;20538;-71
2023/09/09 08:34:06;;;;;;;7.97;7.23;;;27.20;99.90;;;;;;4879326;29;20211;-72
2023/09/09 08:36:32;;;;;;;8.73;7.77;;;27.20;99.90;;;;;;4879233;29;20500;-71
2023/09/09 08:38:59;;;;;;;6.50;5.90;;;28.00;99.90;;;;;;4878054;29;20177;-71
2023/09/09 08:41:46;;;;;;;7.27;6.43;;;27.80;99.90;;;;;;4879680;29;20640;-71
2023/09/09 08:44:37;;;;;;;7.50;6.90;;;28.00;99.90;;;;;;4879102;29;20433;-71
2023/09/09 08:47:02;;;;;;;7.23;6.33;;;27.90;99.90;;;;;;4879435;29;20520;-71
2023/09/09 08:49:31;;;;;;;9.73;8.73;;;27.80;99.90;;;;;;4873801;29;20968;-71
2023/09/09 08:52:06;;;;;;;7.50;6.20;;;28.10;99.90;;;;;;4878799;29;20179;-71
2023/09/09 08:54:32;;;;;;;6.47;5.97;;;27.80;99.90;;;;;;4879224;29;20449;-71
2023/09/09 08:56:59;;;;;;;6.70;6.10;;;28.20;99.90;;;;;;4879023;29;20460;-71
2023/09/09 08:59:25;;;;;;;7.80;6.30;;;28.20;99.90;;;;;;4879336;29;20188;-72
2023/09/09 09:01:51;;;;;;;7.10;6.50;;;27.40;99.90;;;;;;4879374;29;20520;-72
2023/09/09 09:04:18;;;;;;;6.73;6.10;;;28.80;99.90;;;;;;4879884;29;20914;-72
2023/09/09 09:06:48;;;;;;;6.17;5.57;;;29.60;99.90;;;;;;4880636;29;20973;-72
2023/09/09 09:09:16;;;;;;;5.60;5.10;;;29.60;99.90;;;;;;4895736;29;20444;-72
2023/09/09 09:11:44;;;;;;;6.13;5.63;;;30.20;99.00;;;;;;4898887;29;20425;-72
2023/09/09 09:14:09;;;;;;;6.87;5.73;;;29.30;99.90;;;;;;4895774;29;20410;-71
2023/09/09 09:16:42;;;;;;;6.00;5.50;;;29.00;99.90;;;;;;4892370;29;20827;-72
2023/09/09 09:19:18;;;;;;;7.33;6.70;;;29.00;99.90;;;;;;4878859;29;20255;-73
2023/09/09 09:21:44;;;;;;;6.30;5.70;;;29.30;99.90;;;;;;4878863;29;20889;-71
2023/09/09 09:24:10;;;;;;;6.37;5.77;;;29.30;99.80;;;;;;4878967;29;20417;-71
2023/09/09 09:26:35;;;;;;;6.07;5.53;;;30.40;98.40;;;;;;4878466;29;20216;-71
2023/09/09 09:29:05;;;;;;;5.93;5.30;;;29.30;98.40;;;;;;4878699;29;20181;-72
2023/09/09 09:31:31;;;;;;;6.53;5.00;;;30.10;98.10;;;;;;4879395;29;20176;-72
2023/09/09 09:33:59;;;;;;;5.73;5.20;;;29.80;98.30;;;;;;4879272;29;20430;-74
2023/09/09 09:36:26;;;;;;;6.10;5.60;;;30.00;97.10;;;;;;4878889;29;20300;-72
2023/09/09 09:38:54;;;;;;;6.97;6.00;;;30.00;96.90;;;;;;4879070;29;20931;-73
2023/09/09 09:41:22;;;;;;;7.00;6.30;;;30.20;97.20;;;;;;4879453;29;20589;-72
2023/09/09 09:43:49;;;;;;;6.50;5.30;;;30.30;97.00;;;;;;4880290;29;20417;-72
2023/09/09 09:46:16;;;;;;;6.87;4.93;;;30.40;95.60;;;;;;4878408;29;20493;-73
2023/09/09 09:48:41;;;;;;;6.23;5.63;;;29.70;96.20;;;;;;4878515;29;20517;-71
2023/09/09 09:51:07;;;;;;;6.57;5.97;;;29.80;97.00;;;;;;4877999;29;20517;-71
2023/09/09 09:53:48;;;;;;;5.57;4.97;;;29.20;96.80;;;;;;4878010;29;20237;-72
2023/09/09 09:56:15;;;;;;;9.77;5.13;;;29.20;97.10;;;;;;4877751;29;20571;-71
2023/09/09 09:58:46;;;;;;;7.60;6.53;;;28.90;96.80;;;;;;4877735;29;20418;-72
2023/09/09 10:01:12;;;;;;;5.57;5.10;;;28.70;97.30;;;;;;4880110;29;20453;-71
2023/09/09 10:03:51;;;;;;;5.07;4.67;;;28.80;97.10;;;;;;4881796;29;20460;-71
2023/09/09 10:06:25;;;;;;;6.30;5.80;;;28.70;97.50;;;;;;4881629;29;20488;-71
2023/09/09 10:09:05;;;;;;;5.87;5.33;;;28.50;97.60;;;;;;4882283;29;20425;-70
2023/09/09 10:11:39;;;;;;;6.47;5.93;;;28.90;97.60;;;;;;4881812;29;20413;-71
2023/09/09 10:14:16;;;;;;;6.70;5.40;;;28.70;97.90;;;;;;4881667;29;20422;-72
2023/09/09 10:16:42;;;;;;;5.70;5.13;;;28.60;98.00;;;;;;4881681;29;20564;-72
2023/09/09 10:19:11;;;;;;;7.03;5.20;;;28.70;97.20;;;;;;4882090;29;20421;-72
2023/09/09 10:21:38;;;;;;;6.57;5.97;;;28.80;97.20;;;;;;4881511;29;20850;-72
2023/09/09 10:24:06;;;;;;;5.63;4.90;;;28.90;97.10;;;;;;4881584;29;20427;-71
2023/09/09 10:26:32;;;;;;;4.80;4.40;;;28.90;95.90;;;;;;4879181;29;20967;-72
2023/09/09 10:29:02;;;;;;;4.87;4.47;;;28.60;95.00;;;;;;4881381;29;20477;-71
2023/09/09 10:31:29;;;;;;;4.77;4.37;;;28.50;95.70;;;;;;4939036;23;20597;-68
2023/09/09 10:33:56;;;;;;;5.23;4.73;;;28.60;95.60;;;;;;4937884;29;20450;-68
2023/09/09 10:36:23;;;;;;;5.03;4.60;;;28.60;94.80;;;;;;4937628;29;20493;-68
2023/09/09 10:38:51;;;;;;;5.83;5.23;;;28.60;95.50;;;;;;4937902;29;20454;-68
2023/09/09 10:41:17;;;;;;;5.40;4.63;;;28.60;95.00;;;;;;4925496;29;20881;-68
2023/09/09 10:43:43;;;;;;;5.63;5.13;;;28.50;95.20;;;;;;4918855;29;20511;-69
2023/09/09 10:46:09;;;;;;;5.17;4.67;;;28.40;96.40;;;;;;4918607;29;20428;-67
2023/09/09 10:48:35;;;;;;;5.30;4.90;;;28.50;95.40;;;;;;4919100;29;20218;-69
2023/09/09 10:51:05;;;;;;;5.23;4.70;;;28.60;94.90;;;;;;4918534;29;20199;-69
2023/09/09 10:53:31;;;;;;;4.63;4.20;;;28.60;93.90;;;;;;4918473;29;20184;-68
2023/09/09 10:55:59;;;;;;;6.80;4.30;;;28.70;92.90;;;;;;4918373;29;20474;-70
2023/09/09 10:58:35;;;;;;;4.50;4.10;;;28.70;92.30;;;;;;4918641;29;20420;-68
2023/09/09 11:01:01;;;;;;;5.10;4.17;;;28.90;91.60;;;;;;4918553;29;20896;-69
2023/09/09 11:03:47;;;;;;;6.90;4.10;;;29.00;91.10;;;;;;4904430;29;20404;-69
2023/09/09 11:06:31;;;;;;;4.33;3.93;;;28.90;91.90;;;;;;4918504;29;20427;-69
2023/09/09 11:09:02;;;;;;;7.47;5.00;;;28.80;92.40;;;;;;4918741;29;20424;-70
2023/09/09 11:11:39;;;;;;;5.10;4.53;;;28.70;92.40;;;;;;4918023;29;20969;-69
2023/09/09 11:14:06;;;;;;;4.03;3.73;;;28.80;92.80;;;;;;4912261;29;20486;-69
2023/09/09 11:16:33;;;;;;;4.40;4.10;;;28.80;91.70;;;;;;4918356;29;20567;-69
2023/09/09 11:19:07;;;;;;;5.40;4.33;;;28.80;92.20;;;;;;4918320;29;20931;-68
2023/09/09 11:21:44;;;;;;;5.03;4.53;;;28.90;92.00;;;;;;4917803;29;20431;-69
2023/09/09 11:24:10;;;;;;;5.07;4.57;;;28.90;92.10;;;;;;4917945;29;20495;-69
2023/09/09 11:26:43;;;;;;;4.43;4.00;;;28.90;92.60;;;;;;4917893;29;20415;-69
2023/09/09 11:29:10;;;;;;;4.40;4.10;;;28.70;92.20;;;;;;4917907;29;20509;-68
2023/09/09 11:31:35;;;;;;;4.87;4.50;;;28.80;92.10;;;;;;4917974;29;20451;-68
2023/09/09 11:34:01;;;;;;;4.40;3.97;;;28.90;92.00;;;;;;4917969;29;20494;-69
2023/09/09 11:36:28;;;;;;;5.40;4.73;;;28.90;91.50;;;;;;4917443;29;20194;-68
2023/09/09 11:38:56;;;;;;;5.03;4.63;;;28.90;91.80;;;;;;4918003;29;20662;-69
2023/09/09 11:41:24;;;;;;;4.63;4.23;;;28.90;91.80;;;;;;4917565;29;20455;-68
2023/09/09 11:44:03;;;;;;;4.40;4.00;;;29.00;91.70;;;;;;4917822;29;20800;-69
2023/09/09 11:46:44;;;;;;;4.93;4.53;;;29.00;92.60;;;;;;4917750;29;20427;-69
2023/09/09 11:49:11;;;;;;;5.10;4.70;;;29.00;92.50;;;;;;4917410;29;20424;-69
2023/09/09 11:51:37;;;;;;;8.50;4.90;;;29.10;92.10;;;;;;4917634;29;20860;-69
2023/09/09 11:54:04;;;;;;;8.30;4.70;;;29.00;92.20;;;;;;4917583;29;20518;-69
2023/09/09 11:56:32;;;;;;;4.87;4.37;;;29.00;91.70;;;;;;4914009;29;20460;-71
2023/09/09 11:58:58;;;;;;;4.37;3.97;;;29.00;92.20;;;;;;4913171;29;20416;-70
2023/09/09 12:01:24;;;;;;;4.80;4.40;;;29.10;92.20;;;;;;4917271;29;20491;-70
2023/09/09 12:03:50;;;;;;;4.27;3.87;;;29.20;91.80;;;;;;4917205;29;20179;-70
2023/09/09 12:06:20;;;;;;;4.73;4.17;;;29.20;91.70;;;;;;4917751;29;20188;-72
2023/09/09 12:08:47;;;;;;;5.60;4.57;;;29.20;90.90;;;;;;4917846;29;20420;-70
2023/09/09 12:11:15;;;;;;;5.03;4.23;;;29.10;91.00;;;;;;4917213;29;20491;-69
2023/09/09 12:13:41;;;;;;;4.80;4.40;;;29.20;90.70;;;;;;4905084;29;20926;-72
2023/09/09 12:16:09;;;;;;;4.70;4.13;;;29.10;89.70;;;;;;4916981;29;20452;-71
2023/09/09 12:18:34;;;;;;;4.70;4.03;;;29.00;88.40;;;;;;4909165;29;20978;-74
2023/09/09 12:21:01;;;;;;;5.13;4.37;;;29.00;89.60;;;;;;4916987;29;20518;-73
2023/09/09 12:23:31;;;;;;;3.97;3.67;;;29.20;90.00;;;;;;4913902;29;20212;-75
2023/09/09 12:26:05;;;;;;;4.63;3.80;;;29.40;88.90;;;;;;4912064;29;20444;-73
2023/09/09 12:28:31;;;;;;;4.43;4.03;;;29.20;87.80;;;;;;4916635;29;20897;-73
2023/09/09 12:30:58;;;;;;;6.73;4.00;;;29.30;89.50;;;;;;4916442;29;20467;-74
2023/09/09 12:33:24;;;;;;;4.30;4.00;;;29.30;88.10;;;;;;4916542;29;20554;-71
2023/09/09 12:35:51;;;;;;;9.40;6.37;;;29.30;87.60;;;;;;4916660;29;20463;-72
2023/09/09 12:38:18;;;;;;;27.10;24.37;;;29.30;89.30;;;;;;4916480;29;20666;-67
2023/09/09 12:40:48;;;;;;;37.00;27.77;;;29.30;87.60;;;;;;4915197;29;20435;-70
2023/09/09 12:43:14;;;;;;;8.37;5.83;;;29.20;88.00;;;;;;4908006;29;20427;-68